createdAt,value
2023-12-23T00:03:22.850Z,71.42
2023-12-23T00:05:27.809Z,71.42
2023-12-23T00:07:30.472Z,71.28
2023-12-23T00:09:33.095Z,71.13
2023-12-23T00:11:36.329Z,71.29
2023-12-23T00:13:39.861Z,71.09
2023-12-23T00:15:42.714Z,71.20
2023-12-23T00:17:49.369Z,70.92
2023-12-23T00:19:53.322Z,70.35
2023-12-23T00:23:57.560Z,70.00
2023-12-23T00:26:00.159Z,69.74
2023-12-23T00:28:05.989Z,69.60
2023-12-23T00:30:09.489Z,69.63
2023-12-23T00:32:14.710Z,69.28
2023-12-23T00:34:17.963Z,69.10
2023-12-23T00:36:21.030Z,68.69
2023-12-23T00:38:26.819Z,68.43
2023-12-23T00:40:30.835Z,68.49
2023-12-23T00:42:33.429Z,68.79
2023-12-23T00:44:36.322Z,68.82
2023-12-23T00:46:39.031Z,69.15
2023-12-23T00:48:41.884Z,69.26
2023-12-23T00:50:44.568Z,68.96
2023-12-23T00:52:47.275Z,68.82
2023-12-23T00:54:51.167Z,68.52
2023-12-23T00:56:53.928Z,68.56
2023-12-23T00:58:57.772Z,68.04
2023-12-23T01:01:00.554Z,67.75
2023-12-23T01:03:04.629Z,67.50
2023-12-23T01:05:10.428Z,67.23
2023-12-23T01:07:13.169Z,67.41
2023-12-23T01:09:15.656Z,67.13
2023-12-23T01:11:18.569Z,66.31
2023-12-23T01:13:21.863Z,66.40
2023-12-23T01:15:24.338Z,66.26
2023-12-23T01:17:27.087Z,66.17
2023-12-23T01:19:30.975Z,66.42
2023-12-23T01:21:33.508Z,66.58
2023-12-23T01:23:36.200Z,66.05
2023-12-23T01:25:38.982Z,65.97
2023-12-23T01:27:42.648Z,65.91
2023-12-23T01:29:46.336Z,66.10
2023-12-23T01:31:51.559Z,65.41
2023-12-23T01:33:54.594Z,65.28
2023-12-23T01:35:57.773Z,64.71
2023-12-23T01:38:04.014Z,64.67
2023-12-23T01:40:08.854Z,64.62
2023-12-23T01:42:13.666Z,64.54
2023-12-23T01:44:16.234Z,64.41
2023-12-23T01:46:19.649Z,64.25
2023-12-23T01:48:24.410Z,63.91
2023-12-23T01:50:28.800Z,64.42
2023-12-23T01:52:33.835Z,64.39
2023-12-23T01:54:41.300Z,64.04
2023-12-23T01:56:49.660Z,63.78
2023-12-23T01:58:53.150Z,63.81
2023-12-23T02:00:57.420Z,63.80
2023-12-23T02:03:01.320Z,63.85
2023-12-23T02:05:06.068Z,63.84
2023-12-23T02:07:09.358Z,64.11
2023-12-23T02:09:12.396Z,64.01
2023-12-23T02:11:53.310Z,64.16
2023-12-23T02:14:30.174Z,63.90
2023-12-23T02:16:32.990Z,63.81
2023-12-23T02:18:36.135Z,64.18
2023-12-23T02:20:38.912Z,64.19
2023-12-23T02:22:41.762Z,63.93
2023-12-23T02:24:44.580Z,63.31
2023-12-23T02:28:57.729Z,63.80
2023-12-23T02:31:01.451Z,63.46
2023-12-23T02:33:05.226Z,63.14
2023-12-23T02:35:09.668Z,63.20
2023-12-23T02:37:12.256Z,63.24
2023-12-23T02:39:15.534Z,63.30
2023-12-23T02:41:19.268Z,63.05
2023-12-23T02:43:21.880Z,62.78
2023-12-23T02:45:25.127Z,62.78
2023-12-23T02:47:28.633Z,62.57
2023-12-23T02:49:31.320Z,62.72
2023-12-23T02:51:33.980Z,62.91
2023-12-23T02:53:37.601Z,62.63
2023-12-23T02:55:40.284Z,62.11
2023-12-23T02:57:43.333Z,62.19
2023-12-23T02:59:45.942Z,62.25
2023-12-23T03:01:48.463Z,62.24
2023-12-23T03:03:51.313Z,62.53
2023-12-23T03:05:55.712Z,62.87
2023-12-23T03:07:58.450Z,62.81
2023-12-23T03:10:04.110Z,62.72
2023-12-23T03:12:09.574Z,62.73
2023-12-23T03:14:12.607Z,63.17
2023-12-23T03:16:18.333Z,63.06
2023-12-23T03:18:21.201Z,63.19
2023-12-23T03:20:24.502Z,63.10
2023-12-23T03:22:27.162Z,62.79
2023-12-23T03:24:29.694Z,63.03
2023-12-23T03:26:32.552Z,63.17
2023-12-23T03:28:36.248Z,63.29
2023-12-23T03:30:39.011Z,63.16
2023-12-23T03:32:43.288Z,63.19
2023-12-23T03:34:46.777Z,63.26
2023-12-23T03:36:50.126Z,63.26
2023-12-23T03:38:53.381Z,63.59
2023-12-23T03:40:56.230Z,63.40
2023-12-23T03:42:58.836Z,63.64
2023-12-23T03:45:02.803Z,63.63
2023-12-23T03:47:06.738Z,63.36
2023-12-23T03:49:10.463Z,63.38
2023-12-23T03:51:17.733Z,63.61
2023-12-23T03:53:20.712Z,64.04
2023-12-23T03:55:32.666Z,64.16
2023-12-23T03:57:35.215Z,64.24
2023-12-23T03:59:40.446Z,64.20
2023-12-23T04:01:44.393Z,64.24
2023-12-23T04:03:48.262Z,64.34
2023-12-23T04:05:51.237Z,64.28
2023-12-23T04:07:53.834Z,64.32
2023-12-23T04:09:56.481Z,64.07
2023-12-23T04:11:59.199Z,64.39
2023-12-23T04:14:02.479Z,64.45
2023-12-23T04:16:05.895Z,64.19
2023-12-23T04:18:09.239Z,64.43
2023-12-23T04:20:12.334Z,64.23
2023-12-23T04:22:15.108Z,64.39
2023-12-23T04:24:20.342Z,64.45
2023-12-23T04:26:23.691Z,64.48
2023-12-23T04:28:26.936Z,64.35
2023-12-23T04:30:29.981Z,64.13
2023-12-23T04:32:32.751Z,63.82
2023-12-23T04:34:39.751Z,63.66
2023-12-23T04:36:42.699Z,64.03
2023-12-23T04:38:45.535Z,64.01
2023-12-23T04:40:48.129Z,63.98
2023-12-23T04:42:52.361Z,63.74
2023-12-23T04:44:55.504Z,63.20
2023-12-23T04:46:58.411Z,63.41
2023-12-23T04:49:01.208Z,63.14
2023-12-23T04:51:04.663Z,63.51
2023-12-23T04:53:07.595Z,63.73
2023-12-23T04:55:11.038Z,63.79
2023-12-23T04:57:14.075Z,63.85
2023-12-23T04:59:17.425Z,64.11
2023-12-23T05:01:20.607Z,64.26
2023-12-23T05:05:26.861Z,64.78
2023-12-23T05:07:29.432Z,65.15
2023-12-23T05:09:32.032Z,65.51
2023-12-23T05:11:35.405Z,65.59
2023-12-23T05:15:43.436Z,65.98
2023-12-23T05:17:47.739Z,66.22
2023-12-23T05:19:50.778Z,66.49
2023-12-23T05:21:56.458Z,66.69
2023-12-23T05:24:02.590Z,67.07
2023-12-23T05:28:08.595Z,67.19
2023-12-23T05:30:13.250Z,67.29
2023-12-23T05:32:16.439Z,67.35
2023-12-23T05:34:19.544Z,67.47
2023-12-23T05:36:23.971Z,67.56
2023-12-23T05:38:28.644Z,67.69
2023-12-23T05:40:31.254Z,67.65
2023-12-23T05:42:36.150Z,67.85
2023-12-23T05:44:40.129Z,67.95
2023-12-23T05:46:43.261Z,67.98
2023-12-23T05:48:47.218Z,68.05
2023-12-23T05:50:49.987Z,68.14
2023-12-23T05:52:53.107Z,68.21
2023-12-23T05:54:55.977Z,68.36
2023-12-23T05:56:58.516Z,68.48
2023-12-23T05:59:01.271Z,68.31
2023-12-23T06:01:05.952Z,68.28
2023-12-23T06:03:08.833Z,68.28
2023-12-23T06:05:11.580Z,68.42
2023-12-23T06:07:15.881Z,68.59
2023-12-23T06:09:18.725Z,68.39
2023-12-23T06:11:21.542Z,68.52
2023-12-23T06:13:26.404Z,68.69
2023-12-23T06:15:29.004Z,68.93
2023-12-23T06:17:33.943Z,69.09
2023-12-23T06:19:36.456Z,69.17
2023-12-23T06:21:40.477Z,69.21
2023-12-23T06:23:43.232Z,69.39
2023-12-23T06:25:45.857Z,69.12
2023-12-23T06:27:48.557Z,69.32
2023-12-23T06:29:51.387Z,69.26
2023-12-23T06:31:59.327Z,69.34
2023-12-23T06:34:02.852Z,69.43
2023-12-23T06:36:11.087Z,69.36
2023-12-23T06:38:17.072Z,69.53
2023-12-23T06:40:27.328Z,69.73
2023-12-23T06:42:30.052Z,69.72
2023-12-23T06:44:34.713Z,69.93
2023-12-23T06:46:37.476Z,69.76
2023-12-23T06:48:40.462Z,69.78
2023-12-23T06:50:43.359Z,69.80
2023-12-23T06:52:45.990Z,69.79
2023-12-23T06:56:51.428Z,70.11
2023-12-23T06:58:57.756Z,70.16
2023-12-23T07:01:04.786Z,70.39
2023-12-23T07:03:08.398Z,70.42
2023-12-23T07:05:12.989Z,70.63
2023-12-23T07:07:16.273Z,70.66
2023-12-23T07:09:18.910Z,70.88
2023-12-23T07:11:21.429Z,71.03
2023-12-23T07:13:24.092Z,71.38
2023-12-23T07:15:27.475Z,71.31
2023-12-23T07:17:38.456Z,71.33
2023-12-23T07:19:45.586Z,71.59
2023-12-23T07:21:54.218Z,71.63
2023-12-23T07:24:04.193Z,71.75
2023-12-23T07:26:10.712Z,71.76
2023-12-23T07:28:13.507Z,71.83
2023-12-23T07:30:16.213Z,71.95
2023-12-23T07:32:18.945Z,71.95
2023-12-23T07:34:21.746Z,72.19
2023-12-23T07:36:24.529Z,72.20
2023-12-23T07:38:27.164Z,72.26
2023-12-23T07:40:31.165Z,72.24
2023-12-23T07:42:34.674Z,72.25
2023-12-23T07:44:38.181Z,72.29
2023-12-23T07:46:40.962Z,72.51
2023-12-23T07:48:44.033Z,72.77
2023-12-23T07:50:46.681Z,72.80
2023-12-23T07:52:50.492Z,72.91
2023-12-23T07:54:53.361Z,72.97
2023-12-23T07:56:56.072Z,72.97
2023-12-23T07:58:58.975Z,72.95
2023-12-23T08:01:02.694Z,72.76
2023-12-23T08:03:06.820Z,72.86
2023-12-23T08:05:11.819Z,72.71
2023-12-23T08:07:16.204Z,72.56
2023-12-23T08:09:20.024Z,72.88
2023-12-23T08:11:23.741Z,73.01
2023-12-23T08:13:28.593Z,73.13
2023-12-23T08:15:31.286Z,73.24
2023-12-23T08:17:33.985Z,73.16
2023-12-23T08:19:36.643Z,73.24
2023-12-23T08:21:39.511Z,73.22
2023-12-23T08:23:42.473Z,73.28
2023-12-23T08:25:45.364Z,73.22
2023-12-23T08:27:48.226Z,73.37
2023-12-23T08:29:50.687Z,73.34
2023-12-23T08:31:53.516Z,73.32
2023-12-23T08:33:56.502Z,73.50
2023-12-23T08:35:59.870Z,73.35
2023-12-23T08:38:02.584Z,73.50
2023-12-23T08:40:06.193Z,73.38
2023-12-23T08:42:12.249Z,73.45
2023-12-23T08:44:14.923Z,73.49
2023-12-23T08:46:17.768Z,73.37
2023-12-23T08:48:20.528Z,73.60
2023-12-23T08:50:23.864Z,73.70
2023-12-23T08:52:27.163Z,73.59
2023-12-23T08:54:29.882Z,73.42
2023-12-23T08:56:32.806Z,73.52
2023-12-23T08:58:35.299Z,73.40
2023-12-23T09:00:38.600Z,73.47
2023-12-23T09:02:41.147Z,73.56
2023-12-23T09:04:43.845Z,73.34
2023-12-23T09:06:47.512Z,73.30
2023-12-23T09:08:52.588Z,73.44
2023-12-23T09:10:55.357Z,73.27
2023-12-23T09:12:57.969Z,73.34
2023-12-23T09:17:02.460Z,73.19
2023-12-23T09:19:06.494Z,73.16
2023-12-23T09:21:09.974Z,72.96
2023-12-23T09:23:12.497Z,73.37
2023-12-23T09:25:15.255Z,73.40
2023-12-23T09:27:17.947Z,73.33
2023-12-23T09:29:20.651Z,73.33
2023-12-23T09:31:23.300Z,73.49
2023-12-23T09:33:26.229Z,73.57
2023-12-23T09:35:29.062Z,73.73
2023-12-23T09:37:43.858Z,73.84
2023-12-23T09:39:46.479Z,73.81
2023-12-23T09:41:49.871Z,73.76
2023-12-23T09:43:53.817Z,73.80
2023-12-23T09:45:59.363Z,73.78
2023-12-23T09:48:02.421Z,73.69
2023-12-23T09:50:05.396Z,73.74
2023-12-23T09:52:08.108Z,73.57
2023-12-23T09:54:16.951Z,73.52
2023-12-23T09:56:19.688Z,73.46
2023-12-23T09:58:23.172Z,73.32
2023-12-23T10:00:26.225Z,73.51
2023-12-23T10:02:28.943Z,73.50
2023-12-23T10:04:31.781Z,73.88
2023-12-23T10:06:34.793Z,73.69
2023-12-23T10:08:37.422Z,73.78
2023-12-23T10:10:41.300Z,73.72
2023-12-23T10:12:44.624Z,73.81
2023-12-23T10:14:49.425Z,73.75
2023-12-23T10:16:54.106Z,73.84
2023-12-23T10:18:57.633Z,73.73
2023-12-23T10:21:00.320Z,73.75
2023-12-23T10:23:02.909Z,73.85
2023-12-23T10:25:05.844Z,73.82
2023-12-23T10:27:08.403Z,73.86
2023-12-23T10:29:11.455Z,73.95
2023-12-23T10:31:14.714Z,73.96
2023-12-23T10:33:19.025Z,73.74
2023-12-23T10:35:22.286Z,73.64
2023-12-23T10:37:26.192Z,73.80
2023-12-23T10:39:32.091Z,73.83
2023-12-23T10:41:52.409Z,73.84
2023-12-23T10:43:56.482Z,73.74
2023-12-23T10:46:00.449Z,73.78
2023-12-23T10:48:05.403Z,73.55
2023-12-23T10:50:10.705Z,73.58
2023-12-23T10:52:15.237Z,73.59
2023-12-23T10:54:19.967Z,73.69
2023-12-23T10:56:26.397Z,73.69
2023-12-23T10:58:31.314Z,73.65
2023-12-23T11:00:34.271Z,73.73
2023-12-23T11:02:39.096Z,73.71
2023-12-23T11:04:48.596Z,73.79
2023-12-23T11:06:55.002Z,73.70
2023-12-23T11:09:03.198Z,73.75
2023-12-23T11:11:06.202Z,73.75
2023-12-23T11:13:08.916Z,73.78
2023-12-23T11:15:11.559Z,73.59
2023-12-23T11:17:28.017Z,73.62
2023-12-23T11:19:30.814Z,73.61
2023-12-23T11:21:36.231Z,73.64
2023-12-23T11:23:39.275Z,73.59
2023-12-23T11:25:43.747Z,73.64
2023-12-23T11:27:48.262Z,73.79
2023-12-23T11:29:51.664Z,73.76
2023-12-23T11:32:10.398Z,73.56
2023-12-23T11:34:18.127Z,73.48
2023-12-23T11:36:21.013Z,73.58
2023-12-23T11:38:27.991Z,73.40
2023-12-23T11:40:34.424Z,73.33
2023-12-23T11:42:38.285Z,73.53
2023-12-23T11:44:42.442Z,73.60
2023-12-23T11:46:45.599Z,73.70
2023-12-23T11:48:49.161Z,73.59
2023-12-23T11:50:57.449Z,73.56
2023-12-23T11:53:01.017Z,73.51
2023-12-23T11:55:04.784Z,73.40
2023-12-23T11:57:07.457Z,73.59
2023-12-23T11:59:10.216Z,73.50
2023-12-23T12:01:13.136Z,73.43
2023-12-23T12:03:17.174Z,73.57
2023-12-23T12:05:23.338Z,73.42
2023-12-23T12:07:26.215Z,73.54
2023-12-23T12:09:29.288Z,73.61
2023-12-23T12:11:32.473Z,73.80
2023-12-23T12:13:39.483Z,73.77
2023-12-23T12:15:44.011Z,73.81
2023-12-23T12:17:46.756Z,73.89
2023-12-23T12:19:49.578Z,73.96
2023-12-23T12:21:52.174Z,74.08
2023-12-23T12:23:59.637Z,74.06
2023-12-23T12:26:02.343Z,74.08
2023-12-23T12:28:06.720Z,73.99
2023-12-23T12:30:11.344Z,73.96
2023-12-23T12:32:16.996Z,73.79
2023-12-23T12:34:22.239Z,73.77
2023-12-23T12:36:25.726Z,73.55
2023-12-23T12:38:28.955Z,73.59
2023-12-23T12:40:36.292Z,73.65
2023-12-23T12:42:44.766Z,73.87
2023-12-23T12:44:49.910Z,73.76
2023-12-23T12:46:55.530Z,73.87
2023-12-23T12:48:58.190Z,73.74
2023-12-23T12:51:01.399Z,73.87
2023-12-23T12:53:04.328Z,73.94
2023-12-23T12:55:07.887Z,73.87
2023-12-23T12:57:11.471Z,73.94
2023-12-23T12:59:19.184Z,73.93
2023-12-23T13:01:22.800Z,74.10
2023-12-23T13:03:25.609Z,74.05
2023-12-23T13:05:30.754Z,74.09
2023-12-23T13:07:33.891Z,74.03
2023-12-23T13:09:36.422Z,74.06
2023-12-23T13:11:39.237Z,73.96
2023-12-23T13:13:41.905Z,74.04
2023-12-23T13:15:44.701Z,73.86
2023-12-23T13:17:47.473Z,73.89
2023-12-23T13:19:50.388Z,74.03
2023-12-23T13:21:53.241Z,74.21
2023-12-23T13:23:55.909Z,74.05
2023-12-23T13:25:58.501Z,74.06
2023-12-23T13:28:01.048Z,73.97
2023-12-23T13:30:05.052Z,74.08
2023-12-23T13:32:09.000Z,74.00
2023-12-23T13:34:12.452Z,73.91
2023-12-23T13:36:15.479Z,73.96
2023-12-23T13:38:20.489Z,73.95
2023-12-23T13:40:25.786Z,73.97
2023-12-23T13:42:28.509Z,74.11
2023-12-23T13:44:36.134Z,74.06
2023-12-23T13:46:39.419Z,74.16
2023-12-23T13:48:42.241Z,74.00
2023-12-23T13:50:45.229Z,73.96
2023-12-23T13:52:49.601Z,74.13
2023-12-23T13:54:52.294Z,74.14
2023-12-23T13:56:55.070Z,74.22
2023-12-23T13:58:57.789Z,74.21
2023-12-23T14:01:00.703Z,74.22
2023-12-23T14:03:04.032Z,74.26
2023-12-23T14:05:08.186Z,74.32
2023-12-23T14:07:12.358Z,74.23
2023-12-23T14:09:16.714Z,74.22
2023-12-23T14:11:21.195Z,74.09
2023-12-23T14:13:25.637Z,74.23
2023-12-23T14:15:28.141Z,74.40
2023-12-23T14:17:33.626Z,74.37
2023-12-23T14:19:36.759Z,74.36
2023-12-23T14:23:40.896Z,74.19
2023-12-23T14:25:43.842Z,74.19
2023-12-23T14:27:46.483Z,74.17
2023-12-23T14:29:50.525Z,74.13
2023-12-23T14:31:53.153Z,74.18
2023-12-23T14:33:57.381Z,74.03
2023-12-23T14:36:02.114Z,74.33
2023-12-23T14:38:06.327Z,74.36
2023-12-23T14:40:09.942Z,74.48
2023-12-23T14:42:14.626Z,74.44
2023-12-23T14:44:17.332Z,74.41
2023-12-23T14:46:20.206Z,74.21
2023-12-23T14:48:23.256Z,74.28
2023-12-23T14:50:26.089Z,74.28
2023-12-23T14:52:28.844Z,74.48
2023-12-23T14:56:33.058Z,74.05
2023-12-23T14:58:36.024Z,74.09
2023-12-23T15:00:38.816Z,74.04
2023-12-23T15:02:41.550Z,74.09
2023-12-23T15:04:44.339Z,74.04
2023-12-23T15:06:47.085Z,73.97
2023-12-23T15:08:49.833Z,73.94
2023-12-23T15:10:52.665Z,74.06
2023-12-23T15:12:56.375Z,73.95
2023-12-23T15:14:58.873Z,73.91
2023-12-23T15:17:02.510Z,73.89
2023-12-23T15:19:05.335Z,73.61
2023-12-23T15:21:08.113Z,73.59
2023-12-23T15:23:10.620Z,73.64
2023-12-23T15:25:13.369Z,73.82
2023-12-23T15:27:17.012Z,73.77
2023-12-23T15:29:19.567Z,73.85
2023-12-23T15:31:22.714Z,73.98
2023-12-23T15:33:25.384Z,73.90
2023-12-23T15:35:28.230Z,74.07
2023-12-23T15:37:31.011Z,73.80
2023-12-23T15:39:33.581Z,73.82
2023-12-23T15:41:36.464Z,73.88
2023-12-23T15:43:39.160Z,73.92
2023-12-23T15:45:41.793Z,73.84
2023-12-23T15:47:47.255Z,74.14
2023-12-23T15:49:52.167Z,73.97
2023-12-23T15:51:57.764Z,73.99
2023-12-23T15:54:00.827Z,74.18
2023-12-23T15:56:04.233Z,74.17
2023-12-23T15:58:07.526Z,74.08
2023-12-23T16:00:11.225Z,74.24
2023-12-23T16:02:17.754Z,74.24
2023-12-23T16:04:21.488Z,74.36
2023-12-23T16:06:23.995Z,74.40
2023-12-23T16:10:28.272Z,74.41
2023-12-23T16:12:32.046Z,74.18
2023-12-23T16:14:36.527Z,74.25
2023-12-23T16:16:41.142Z,74.25
2023-12-23T16:18:44.936Z,74.37
2023-12-23T16:20:47.768Z,74.35
2023-12-23T16:22:53.329Z,74.39
2023-12-23T16:24:56.139Z,74.62
2023-12-23T16:26:58.657Z,74.53
2023-12-23T16:29:02.046Z,74.72
2023-12-23T16:31:06.390Z,74.59
2023-12-23T16:33:10.336Z,74.38
2023-12-23T16:35:13.011Z,74.34
2023-12-23T16:37:20.984Z,74.67
2023-12-23T16:39:25.911Z,74.62
2023-12-23T16:41:28.740Z,74.38
2023-12-23T16:43:31.638Z,74.52
2023-12-23T16:45:34.217Z,74.53
2023-12-23T16:47:36.908Z,74.72
2023-12-23T16:49:41.700Z,74.66
2023-12-23T16:51:45.759Z,74.46
2023-12-23T16:53:48.570Z,74.54
2023-12-23T16:55:51.089Z,74.43
2023-12-23T16:57:54.584Z,74.48
2023-12-23T16:59:58.442Z,74.65
2023-12-23T17:02:01.165Z,74.68
2023-12-23T17:04:06.105Z,74.63
2023-12-23T17:06:09.236Z,74.59
2023-12-23T17:08:13.432Z,74.52
2023-12-23T17:10:17.140Z,74.33
2023-12-23T17:12:19.772Z,74.38
2023-12-23T17:14:22.599Z,74.22
2023-12-23T17:16:25.142Z,74.14
2023-12-23T17:18:29.841Z,74.24
2023-12-23T17:20:32.713Z,74.33
2023-12-23T17:22:36.453Z,74.18
2023-12-23T17:24:40.613Z,74.36
2023-12-23T17:26:43.400Z,74.26
2023-12-23T17:28:47.108Z,74.32
2023-12-23T17:30:49.838Z,74.22
2023-12-23T17:32:52.978Z,74.26
2023-12-23T17:34:56.206Z,74.08
2023-12-23T17:37:01.232Z,73.98
2023-12-23T17:39:05.951Z,74.09
2023-12-23T17:41:08.657Z,74.19
2023-12-23T17:43:12.014Z,74.10
2023-12-23T17:45:14.670Z,73.86
2023-12-23T17:47:17.345Z,74.03
2023-12-23T17:49:20.457Z,73.98
2023-12-23T17:51:25.034Z,73.80
2023-12-23T17:53:27.729Z,73.93
2023-12-23T17:55:30.391Z,73.90
2023-12-23T17:57:33.281Z,74.13
2023-12-23T17:59:36.006Z,73.91
2023-12-23T18:01:39.261Z,73.96
2023-12-23T18:03:42.215Z,73.91
2023-12-23T18:05:48.622Z,73.85
2023-12-23T18:07:53.236Z,73.85
2023-12-23T18:09:57.085Z,74.05
2023-12-23T18:11:59.891Z,73.95
2023-12-23T18:14:02.940Z,73.86
2023-12-23T18:16:05.688Z,74.12
2023-12-23T18:18:09.571Z,74.06
2023-12-23T18:20:13.791Z,73.88
2023-12-23T18:22:16.459Z,73.92
2023-12-23T18:24:21.017Z,73.88
2023-12-23T18:26:26.295Z,73.96
2023-12-23T18:28:29.874Z,73.91
2023-12-23T18:30:32.601Z,73.73
2023-12-23T18:32:35.476Z,73.69
2023-12-23T18:34:38.735Z,73.59
2023-12-23T18:36:42.290Z,73.80
2023-12-23T18:38:44.805Z,73.81
2023-12-23T18:42:51.976Z,73.70
2023-12-23T18:44:55.800Z,73.92
2023-12-23T18:46:59.254Z,73.81
2023-12-23T18:49:02.251Z,73.52
2023-12-23T18:51:07.261Z,73.44
2023-12-23T18:53:09.870Z,73.53
2023-12-23T18:55:12.473Z,73.59
2023-12-23T18:57:17.929Z,73.53
2023-12-23T18:59:21.010Z,73.63
2023-12-23T19:01:23.781Z,73.65
2023-12-23T19:03:28.722Z,73.34
2023-12-23T19:05:31.511Z,73.35
2023-12-23T19:07:35.569Z,73.27
2023-12-23T19:09:38.780Z,73.26
2023-12-23T19:11:43.153Z,72.96
2023-12-23T19:13:47.380Z,73.27
2023-12-23T19:15:54.071Z,73.18
2023-12-23T19:17:59.453Z,73.12
2023-12-23T19:20:04.225Z,73.14
2023-12-23T19:22:07.686Z,73.16
2023-12-23T19:24:10.562Z,73.03
2023-12-23T19:26:13.106Z,72.97
2023-12-23T19:28:18.950Z,72.77
2023-12-23T19:30:22.252Z,72.58
2023-12-23T19:32:25.431Z,72.59
2023-12-23T19:34:28.102Z,72.41
2023-12-23T19:36:31.594Z,72.43
2023-12-23T19:38:34.272Z,72.46
2023-12-23T19:40:36.801Z,72.22
2023-12-23T19:42:40.536Z,72.40
2023-12-23T19:44:43.679Z,72.45
2023-12-23T19:46:47.594Z,72.29
2023-12-23T19:48:50.387Z,72.18
2023-12-23T19:50:53.206Z,72.07
2023-12-23T19:58:30.430Z,71.17
2023-12-23T20:00:33.374Z,71.30
2023-12-23T20:02:35.975Z,71.08
2023-12-23T20:04:38.683Z,71.17
2023-12-23T20:06:42.093Z,71.24
2023-12-23T20:08:44.742Z,71.42
2023-12-23T20:10:47.714Z,71.55
2023-12-23T20:13:01.595Z,71.11
2023-12-23T20:15:14.508Z,71.54
2023-12-23T20:17:17.636Z,71.21
2023-12-23T20:19:20.570Z,70.85
2023-12-23T20:21:24.214Z,70.83
2023-12-23T20:23:26.900Z,70.77
2023-12-23T20:25:30.280Z,71.09
2023-12-23T20:27:32.928Z,70.91
2023-12-23T20:31:38.443Z,71.11
2023-12-23T20:33:41.160Z,71.36
2023-12-23T20:35:43.801Z,71.29
2023-12-23T20:37:46.327Z,71.23
2023-12-23T20:39:48.857Z,71.12
2023-12-23T20:41:51.447Z,71.05
2023-12-23T20:43:56.320Z,70.91
2023-12-23T20:46:04.186Z,70.89
2023-12-23T20:48:07.684Z,70.85
2023-12-23T20:50:10.591Z,70.87
2023-12-23T20:52:13.130Z,70.95
2023-12-23T20:54:15.995Z,70.85
2023-12-23T20:56:22.768Z,70.84
2023-12-23T20:58:25.437Z,71.28
2023-12-23T21:02:32.356Z,71.37
2023-12-23T21:04:38.859Z,71.20
2023-12-23T21:06:41.489Z,71.19
2023-12-23T21:08:44.071Z,71.29
2023-12-23T21:10:46.615Z,71.42
2023-12-23T21:12:49.400Z,71.52
2023-12-23T21:14:52.110Z,71.41
2023-12-23T21:16:55.286Z,71.52
2023-12-23T21:18:58.969Z,71.61
2023-12-23T21:21:02.118Z,71.63
2023-12-23T21:23:04.937Z,71.84
2023-12-23T21:25:08.425Z,71.80
2023-12-23T21:27:11.048Z,71.88
2023-12-23T21:29:13.846Z,71.47
2023-12-23T21:31:17.178Z,71.71
2023-12-23T21:33:19.876Z,71.73
2023-12-23T21:35:22.950Z,71.48
2023-12-23T21:37:26.774Z,71.42
2023-12-23T21:39:29.369Z,71.58
2023-12-23T21:41:32.100Z,71.68
2023-12-23T21:43:37.862Z,71.65
2023-12-23T21:45:41.673Z,71.98
2023-12-23T21:47:48.454Z,72.11
2023-12-23T21:49:51.487Z,71.91
2023-12-23T21:51:54.412Z,71.93
2023-12-23T21:53:57.196Z,71.75
2023-12-23T21:56:02.718Z,71.85
2023-12-23T21:58:09.489Z,71.73
2023-12-23T22:00:13.682Z,71.60
2023-12-23T22:02:19.594Z,71.78
2023-12-23T22:04:22.270Z,71.78
2023-12-23T22:06:26.428Z,71.59
2023-12-23T22:08:29.895Z,71.52
2023-12-23T22:10:32.585Z,71.45
2023-12-23T22:12:35.770Z,71.39
2023-12-23T22:14:38.874Z,71.46
2023-12-23T22:16:44.398Z,71.29
2023-12-23T22:18:51.515Z,71.39
2023-12-23T22:20:54.556Z,71.27
2023-12-23T22:22:57.448Z,71.45
2023-12-23T22:25:00.287Z,71.76
2023-12-23T22:27:04.768Z,71.52
2023-12-23T22:29:08.019Z,71.39
2023-12-23T22:31:11.185Z,71.26
2023-12-23T22:33:14.169Z,71.33
2023-12-23T22:35:17.707Z,71.26
2023-12-23T22:37:22.208Z,71.29
2023-12-23T22:39:25.530Z,71.24
2023-12-23T22:41:32.356Z,71.34
2023-12-23T22:43:35.826Z,71.26
2023-12-23T22:45:38.707Z,71.32
2023-12-23T22:49:47.484Z,71.62
2023-12-23T22:51:50.314Z,71.90
2023-12-23T22:53:53.006Z,71.81
2023-12-23T22:55:55.701Z,71.75
2023-12-23T22:57:58.412Z,71.85
2023-12-23T23:04:24.205Z,71.12
2023-12-23T23:06:27.141Z,71.27
2023-12-23T23:08:30.019Z,71.21
2023-12-23T23:10:34.507Z,71.07
2023-12-23T23:12:37.182Z,71.11
2023-12-23T23:14:41.107Z,71.10
2023-12-23T23:16:43.757Z,71.23
2023-12-23T23:18:50.791Z,71.15
2023-12-23T23:20:55.191Z,71.05
2023-12-23T23:22:58.442Z,71.25
2023-12-23T23:25:01.770Z,71.20
2023-12-23T23:27:04.517Z,70.84
2023-12-23T23:29:07.402Z,70.66
2023-12-23T23:31:14.348Z,70.64
2023-12-23T23:33:17.237Z,70.35
2023-12-23T23:35:20.566Z,70.38
2023-12-23T23:37:23.919Z,70.31
2023-12-23T23:39:26.813Z,70.08
2023-12-23T23:41:29.379Z,70.07
2023-12-23T23:43:33.041Z,70.07
2023-12-23T23:45:35.736Z,70.32
2023-12-23T23:47:38.916Z,70.18
2023-12-23T23:51:49.015Z,69.55
2023-12-23T23:53:52.449Z,69.63
2023-12-23T23:55:55.295Z,69.58
2023-12-23T23:57:58.649Z,69.52
